Time;durP1;ratioP1;P1;durP2;ratioP2;P2;SDS_P1;SDS_P2;PMS_P1;PMS_P2;Temp;Humidity;BMP_temperature;BMP_pressure;BME280_temperature;BME280_humidity;BME280_pressure;Samples;Min_cycle;Max_cycle;Signal;HPM_P1;HPM_P2
2022/10/25 00:02:24;;;;;;;0.75;0.47;;;;;;;10.54;100.00;99778.72;5090652;28;20060;-39
2022/10/25 00:04:50;;;;;;;3.17;0.93;;;;;;;10.51;100.00;99776.69;5091435;28;20051;-39
2022/10/25 00:07:17;;;;;;;7.43;3.13;;;;;;;10.48;100.00;99769.91;5091864;28;20051;-39
2022/10/25 00:09:44;;;;;;;5.07;0.82;;;;;;;10.44;100.00;99774.56;5088544;28;20063;-40
2022/10/25 00:12:10;;;;;;;3.83;1.33;;;;;;;10.43;100.00;99773.00;5090863;28;20440;-39
2022/10/25 00:14:37;;;;;;;6.53;1.08;;;;;;;10.41;100.00;99778.06;5094405;28;20052;-39
2022/10/25 00:17:03;;;;;;;5.70;1.42;;;;;;;10.39;100.00;99775.69;5092589;28;20044;-39
2022/10/25 00:19:30;;;;;;;4.15;0.90;;;;;;;10.39;100.00;99785.94;5090539;28;20048;-41
2022/10/25 00:21:57;;;;;;;7.28;2.38;;;;;;;10.38;100.00;99781.56;5089837;28;20051;-39
2022/10/25 00:24:24;;;;;;;6.10;1.40;;;;;;;10.36;100.00;99776.41;5090450;28;20048;-43
2022/10/25 00:26:50;;;;;;;7.22;1.73;;;;;;;10.34;100.00;99787.06;5088038;28;20083;-39
2022/10/25 00:29:17;;;;;;;3.08;1.20;;;;;;;10.34;100.00;99787.06;5089895;28;20052;-39
2022/10/25 00:31:44;;;;;;;5.68;1.73;;;;;;;10.33;100.00;99781.88;5089413;28;20047;-39
2022/10/25 00:34:11;;;;;;;3.53;1.40;;;;;;;10.33;100.00;99790.97;5089838;28;20044;-39
2022/10/25 00:36:37;;;;;;;4.30;1.08;;;;;;;10.32;100.00;99789.41;5087880;28;20138;-38
2022/10/25 00:39:04;;;;;;;6.45;2.10;;;;;;;10.32;100.00;99788.59;5090211;28;20051;-39
2022/10/25 00:41:32;;;;;;;3.35;1.30;;;;;;;10.30;100.00;99797.25;5088790;28;20063;-45
2022/10/25 00:44:36;;;;;;;3.20;1.40;;;;;;;10.27;100.00;99792.44;5089692;28;20040;-39
2022/10/25 00:47:13;;;;;;;2.80;1.67;;;;;;;10.26;100.00;99799.16;5086758;28;20047;-39
2022/10/25 00:49:42;;;;;;;6.75;1.13;;;;;;;10.26;100.00;99796.38;5089815;28;20040;-39
2022/10/25 00:52:09;;;;;;;3.65;1.30;;;;;;;10.25;100.00;99800.31;5089771;28;20043;-39
2022/10/25 00:54:41;;;;;;;2.13;1.00;;;;;;;10.23;100.00;99793.53;5088650;28;20510;-39
2022/10/25 00:57:13;;;;;;;2.20;0.80;;;;;;;10.22;100.00;99803.78;5087063;28;20040;-41
2022/10/25 00:59:41;;;;;;;5.97;1.38;;;;;;;10.21;100.00;99809.72;5089323;28;20043;-38
2022/10/25 01:02:08;;;;;;;8.63;2.60;;;;;;;10.20;100.00;99802.56;5094696;28;20086;-38
2022/10/25 01:04:35;;;;;;;2.90;1.30;;;;;;;10.18;100.00;99797.41;5090764;28;20042;-38
2022/10/25 01:07:02;;;;;;;2.42;1.08;;;;;;;10.16;100.00;99807.25;5091324;28;20144;-39
2022/10/25 01:09:31;;;;;;;3.28;0.93;;;;;;;10.14;100.00;99813.13;5090657;28;20508;-43
2022/10/25 01:11:57;;;;;;;7.47;0.90;;;;;;;10.15;100.00;99816.69;5090650;28;20549;-38
2022/10/25 01:14:25;;;;;;;3.13;1.10;;;;;;;10.12;100.00;99823.75;5090789;28;20040;-39
2022/10/25 01:17:05;;;;;;;3.53;1.10;;;;;;;10.12;100.00;99823.75;5090855;28;20406;-40
2022/10/25 01:20:09;;;;;;;7.35;1.00;;;;;;;10.09;100.00;99827.22;5090615;28;20051;-39
2022/10/25 01:22:58;;;;;;;5.55;1.42;;;;;;;10.07;100.00;99840.59;5079784;28;20051;-39
2022/10/25 01:26:13;;;;;;;3.63;0.98;;;;;;;10.06;100.00;99836.22;5090249;28;20039;-39
2022/10/25 01:29:12;;;;;;;1.98;0.77;;;;;;;10.03;100.00;99836.97;5070757;28;20064;-45
2022/10/25 01:31:49;;;;;;;4.60;0.98;;;;;;;10.01;100.00;99844.00;5089553;28;20097;-39
2022/10/25 01:34:35;;;;;;;7.88;1.30;;;;;;;9.99;100.00;99852.69;5089747;28;20371;-41
2022/10/25 01:37:22;;;;;;;1.48;0.88;;;;;;;9.99;100.00;99851.88;5089350;28;20417;-38
2022/10/25 01:40:15;;;;;;;4.28;0.85;;;;;;;10.01;100.00;99850.34;5086985;28;20694;-39
2022/10/25 01:43:01;;;;;;;1.05;0.75;;;;;;;10.01;100.00;99855.88;5084835;28;20044;-39
2022/10/25 01:45:38;;;;;;;0.98;0.70;;;;;;;10.00;100.00;99859.84;5070466;28;20131;-41
2022/10/25 01:48:46;;;;;;;2.00;0.68;;;;;;;10.00;100.00;99845.19;5089245;28;20044;-45
2022/10/25 01:51:16;;;;;;;4.75;0.82;;;;;;;9.98;100.00;99847.53;4999334;28;20061;-39
2022/10/25 01:53:44;;;;;;;2.05;0.70;;;;;;;9.96;100.00;99838.78;5075994;28;20132;-39
2022/10/25 01:56:22;;;;;;;2.97;0.73;;;;;;;9.97;100.00;99843.97;5088424;28;20115;-38
2022/10/25 01:59:20;;;;;;;2.80;1.00;;;;;;;9.96;100.00;99841.53;5088549;28;20056;-42
2022/10/25 02:02:15;;;;;;;7.97;1.92;;;;;;;9.93;100.00;99847.81;5092837;28;20406;-39
2022/10/25 02:05:06;;;;;;;3.53;1.00;;;;;;;9.92;100.00;99851.75;5094669;28;20462;-38
2022/10/25 02:07:37;;;;;;;4.75;0.98;;;;;;;9.92;100.00;99857.25;5096529;28;20079;-39
2022/10/25 02:10:13;;;;;;;6.25;0.98;;;;;;;9.89;100.00;99855.22;5092214;28;20048;-40
2022/10/25 02:13:00;;;;;;;1.77;0.80;;;;;;;9.88;100.00;99857.19;5089615;28;20048;-39
2022/10/25 02:15:38;;;;;;;13.77;2.30;;;;;;;9.89;100.00;99858.78;5094933;28;20056;-39
2022/10/25 02:18:12;;;;;;;3.13;0.88;;;;;;;9.89;100.00;99853.25;5092150;28;20040;-39
2022/10/25 02:20:41;;;;;;;5.55;0.77;;;;;;;9.89;100.00;99852.47;5089317;28;20091;-39
2022/10/25 02:23:14;;;;;;;3.22;0.90;;;;;;;9.86;100.00;99848.44;5089784;28;20054;-39
2022/10/25 02:25:42;;;;;;;4.25;1.48;;;;;;;9.87;100.00;99860.31;5089263;28;20044;-39
2022/10/25 02:28:13;;;;;;;3.63;0.65;;;;;;;9.86;100.00;99856.75;5088923;28;20490;-39
2022/10/25 02:30:42;;;;;;;6.85;0.60;;;;;;;9.84;100.00;99853.56;5102503;28;20055;-39
2022/10/25 02:33:10;;;;;;;3.05;0.85;;;;;;;9.84;100.00;99852.75;5087997;28;20044;-40
2022/10/25 02:35:38;;;;;;;5.93;1.10;;;;;;;9.82;100.00;99839.28;5087934;28;20044;-41
2022/10/25 02:38:04;;;;;;;2.90;0.50;;;;;;;9.80;100.00;99834.13;5087177;28;20040;-39
2022/10/25 02:40:31;;;;;;;3.40;0.60;;;;;;;9.83;100.00;99843.66;5087114;28;20063;-39
2022/10/25 02:42:58;;;;;;;5.38;0.90;;;;;;;9.83;100.00;99843.66;5087125;28;20032;-39
2022/10/25 02:45:24;;;;;;;7.43;1.00;;;;;;;9.83;100.00;99838.13;5087097;28;20040;-39
2022/10/25 02:47:51;;;;;;;8.90;0.93;;;;;;;9.83;100.00;99838.13;5089205;28;20048;-39
2022/10/25 02:50:18;;;;;;;5.40;1.08;;;;;;;9.80;100.00;99833.31;5086161;28;20054;-40
2022/10/25 02:52:44;;;;;;;5.70;0.88;;;;;;;9.80;100.00;99833.31;5086757;28;20040;-42
2022/10/25 02:55:12;;;;;;;5.68;0.93;;;;;;;9.77;100.00;99829.31;5087982;28;20498;-38
2022/10/25 02:57:38;;;;;;;4.80;0.85;;;;;;;9.75;100.00;99831.63;5085789;28;20040;-39
2022/10/25 03:00:06;;;;;;;7.75;0.90;;;;;;;9.75;100.00;99822.53;5095987;28;20485;-39
2022/10/25 03:02:33;;;;;;;3.75;0.80;;;;;;;9.74;100.00;99823.72;5097425;22;20060;-39
2022/10/25 03:05:01;;;;;;;7.80;0.77;;;;;;;9.74;100.00;99823.72;5047810;28;20421;-39
2022/10/25 03:07:28;;;;;;;5.32;1.42;;;;;;;9.73;100.00;99827.63;5048850;28;20041;-39
2022/10/25 03:09:55;;;;;;;1.00;0.60;;;;;;;9.72;100.00;99820.50;5045475;28;20049;-39
2022/10/25 03:12:21;;;;;;;3.55;1.00;;;;;;;9.72;100.00;99834.31;5048599;28;20061;-39
2022/10/25 03:14:48;;;;;;;3.05;0.65;;;;;;;9.71;100.00;99832.72;5040369;28;20051;-40
2022/10/25 03:17:15;;;;;;;6.57;1.35;;;;;;;9.70;100.00;99828.34;5047040;28;20393;-39
2022/10/25 03:19:41;;;;;;;3.25;0.80;;;;;;;9.69;100.00;99833.06;5043839;28;20095;-38
2022/10/25 03:22:08;;;;;;;5.47;1.10;;;;;;;9.68;100.00;99819.63;5046236;28;20045;-39
2022/10/25 03:24:35;;;;;;;2.88;0.77;;;;;;;9.65;100.00;99826.69;5041257;28;20044;-38
2022/10/25 03:27:01;;;;;;;3.60;1.00;;;;;;;9.66;100.00;99816.44;5048522;28;20132;-39
2022/10/25 03:29:28;;;;;;;5.68;0.90;;;;;;;9.66;100.00;99827.50;5043134;28;20059;-39
2022/10/25 03:31:55;;;;;;;5.43;0.80;;;;;;;9.64;100.00;99815.97;5047444;28;20044;-39
2022/10/25 03:34:21;;;;;;;5.25;0.80;;;;;;;9.63;100.00;99825.44;5043594;28;20038;-39
2022/10/25 03:36:48;;;;;;;3.28;0.80;;;;;;;9.62;100.00;99826.59;5033817;28;20521;-39
2022/10/25 03:39:15;;;;;;;5.65;0.70;;;;;;;9.61;100.00;99825.00;5046279;28;20145;-39
2022/10/25 03:41:42;;;;;;;5.13;1.30;;;;;;;9.62;100.00;99827.41;5047395;28;20048;-39
2022/10/25 03:44:08;;;;;;;3.00;1.23;;;;;;;9.61;100.00;99825.00;5055089;28;20702;-39
2022/10/25 03:46:35;;;;;;;4.75;0.95;;;;;;;9.58;100.00;99815.44;5038008;28;20052;-43
2022/10/25 03:49:01;;;;;;;3.63;0.60;;;;;;;9.54;100.00;99820.13;5046868;28;20068;-39
2022/10/25 03:51:28;;;;;;;1.92;0.73;;;;;;;9.52;100.00;99827.97;5041828;28;20040;-39
2022/10/25 03:53:55;;;;;;;6.45;0.93;;;;;;;9.49;100.00;99828.69;5036691;28;20045;-41
2022/10/25 03:56:22;;;;;;;3.97;0.90;;;;;;;9.46;100.00;99823.06;5047911;28;20052;-38
2022/10/25 03:58:49;;;;;;;7.30;1.98;;;;;;;9.43;100.00;99829.31;5039308;28;20452;-39
2022/10/25 04:01:15;;;;;;;1.33;0.85;;;;;;;9.38;100.00;99821.31;5042879;28;20399;-39
2022/10/25 04:03:44;;;;;;;2.10;0.70;;;;;;;9.38;100.00;99824.06;5039716;28;20042;-39
2022/10/25 04:06:10;;;;;;;3.33;1.58;;;;;;;9.34;100.00;99825.97;5043885;28;20131;-39
2022/10/25 04:08:37;;;;;;;7.20;1.15;;;;;;;9.32;100.00;99828.28;5046483;28;20041;-39
2022/10/25 04:11:04;;;;;;;4.57;1.30;;;;;;;9.32;100.00;99822.75;5043335;28;20044;-40
2022/10/25 04:13:30;;;;;;;2.72;0.68;;;;;;;9.31;100.00;99821.94;5051641;28;20053;-39
2022/10/25 04:15:57;;;;;;;2.97;0.82;;;;;;;9.32;100.00;99820.78;5048921;28;20076;-39
2022/10/25 04:18:24;;;;;;;3.70;0.90;;;;;;;9.28;100.00;99808.84;5044250;28;20438;-39
2022/10/25 04:20:50;;;;;;;5.72;0.73;;;;;;;9.28;100.00;99814.38;5050983;28;20075;-39
2022/10/25 04:23:17;;;;;;;3.35;0.70;;;;;;;9.27;100.00;99820.25;5051262;28;20368;-39
2022/10/25 04:25:44;;;;;;;4.57;0.82;;;;;;;9.26;100.00;99816.69;5044951;28;20502;-39
2022/10/25 04:28:10;;;;;;;6.30;0.75;;;;;;;9.26;100.00;99813.13;5037557;28;20116;-39
2022/10/25 04:30:37;;;;;;;8.18;0.98;;;;;;;9.22;100.00;99815.00;5031905;28;20068;-39
2022/10/25 04:33:04;;;;;;;4.28;0.55;;;;;;;9.25;100.00;99800.47;5051249;28;20136;-39
2022/10/25 04:35:31;;;;;;;6.88;1.55;;;;;;;9.25;100.00;99811.53;5029279;28;20414;-39
2022/10/25 04:38:01;;;;;;;3.13;0.90;;;;;;;9.25;100.00;99801.28;5029971;28;20049;-39
2022/10/25 04:40:28;;;;;;;3.78;0.70;;;;;;;9.25;100.00;99806.00;5031261;28;20045;-39
2022/10/25 04:42:55;;;;;;;3.28;0.90;;;;;;;9.23;100.00;99806.38;5047646;28;20056;-39
2022/10/25 04:45:22;;;;;;;5.47;2.15;;;;;;;9.23;100.00;99808.31;5050528;28;20048;-40
2022/10/25 04:47:48;;;;;;;2.53;1.10;;;;;;;9.21;100.00;99816.19;5048900;28;20359;-39
2022/10/25 04:50:15;;;;;;;9.82;1.48;;;;;;;9.17;100.00;99814.13;5047992;28;20052;-39
2022/10/25 04:52:42;;;;;;;1.80;0.55;;;;;;;9.18;100.00;99818.50;5064545;28;20431;-39
2022/10/25 04:55:09;;;;;;;3.88;0.63;;;;;;;9.17;100.00;99825.19;5070323;28;20408;-39
2022/10/25 04:57:36;;;;;;;1.38;0.88;;;;;;;9.16;100.00;99820.78;5071070;28;20048;-39
2022/10/25 05:00:03;;;;;;;2.28;0.52;;;;;;;9.18;100.00;99828.75;5054933;28;20124;-42
2022/10/25 05:02:30;;;;;;;2.20;0.77;;;;;;;9.19;100.00;99817.31;5032704;28;20053;-43
2022/10/25 05:04:56;;;;;;;1.35;0.65;;;;;;;9.24;100.00;99826.50;5050792;28;20055;-39
2022/10/25 05:07:23;;;;;;;3.88;0.73;;;;;;;9.26;100.00;99830.50;5050700;28;20095;-39
2022/10/25 05:09:50;;;;;;;4.18;0.50;;;;;;;9.31;100.00;99834.97;5066932;28;20045;-39
2022/10/25 05:12:16;;;;;;;7.13;1.00;;;;;;;9.28;100.00;99827.38;5070736;28;20045;-39
2022/10/25 05:14:43;;;;;;;3.22;0.57;;;;;;;9.26;100.00;99827.75;5062932;28;20055;-38
2022/10/25 05:17:09;;;;;;;3.70;0.93;;;;;;;9.29;100.00;99834.53;5049348;28;20056;-39
2022/10/25 05:19:36;;;;;;;4.10;0.75;;;;;;;9.34;100.00;99837.81;5049754;28;20525;-39
2022/10/25 05:22:03;;;;;;;7.25;0.60;;;;;;;9.38;100.00;99837.88;5032631;28;20056;-39
2022/10/25 05:24:30;;;;;;;4.03;1.05;;;;;;;9.39;100.00;99843.06;5050356;28;20049;-43
2022/10/25 05:26:56;;;;;;;5.35;0.50;;;;;;;9.39;100.00;99843.06;5031817;28;20480;-39
2022/10/25 05:29:23;;;;;;;1.55;0.57;;;;;;;9.41;100.00;99835.22;5030468;28;20056;-39
2022/10/25 05:31:50;;;;;;;6.97;0.60;;;;;;;9.42;100.00;99827.72;5034604;28;20067;-39
2022/10/25 05:34:16;;;;;;;6.35;0.77;;;;;;;9.42;100.00;99825.78;5048053;28;20056;-39
2022/10/25 05:36:43;;;;;;;0.47;0.30;;;;;;;9.44;100.00;99833.69;5047270;28;20048;-39
2022/10/25 05:39:09;;;;;;;4.38;0.63;;;;;;;9.46;100.00;99845.16;5048557;28;20090;-39
2022/10/25 05:41:36;;;;;;;1.05;0.40;;;;;;;9.49;100.00;99844.44;5047642;28;20064;-39
2022/10/25 05:44:04;;;;;;;3.42;0.43;;;;;;;9.53;100.00;99843.38;5047985;28;20510;-45
2022/10/25 05:46:31;;;;;;;5.10;0.70;;;;;;;9.59;100.00;99827.31;5047059;28;20068;-39
2022/10/25 05:48:58;;;;;;;3.65;0.52;;;;;;;9.65;100.00;99834.97;5047517;28;20055;-39
2022/10/25 05:51:30;;;;;;;4.55;0.73;;;;;;;9.70;100.00;99822.81;5048277;28;20066;-39
2022/10/25 05:54:05;;;;;;;3.95;0.65;;;;;;;9.74;100.00;99840.31;5047144;28;20063;-44
2022/10/25 05:56:33;;;;;;;3.63;0.73;;;;;;;9.78;100.00;99830.09;5046557;28;20041;-39
2022/10/25 05:59:08;;;;;;;5.25;0.65;;;;;;;9.79;100.00;99834.50;5048023;28;20048;-39
2022/10/25 06:01:38;;;;;;;4.05;0.50;;;;;;;9.80;100.00;99834.13;5046075;28;20052;-40
2022/10/25 06:04:05;;;;;;;3.40;0.47;;;;;;;9.82;100.00;99828.25;5042901;28;20045;-39
2022/10/25 06:06:32;;;;;;;3.05;0.50;;;;;;;9.88;100.00;99824.00;5047073;28;20041;-39
2022/10/25 06:09:00;;;;;;;2.28;0.95;;;;;;;9.93;100.00;99820.94;5029099;28;20045;-39
2022/10/25 06:11:28;;;;;;;0.32;0.30;;;;;;;9.96;100.00;99825.75;5047092;28;20052;-39
2022/10/25 06:13:55;;;;;;;2.20;0.82;;;;;;;9.96;100.00;99825.75;5047197;28;20053;-39
2022/10/25 06:16:22;;;;;;;2.83;0.63;;;;;;;9.93;100.00;99823.72;5042989;28;20048;-39
2022/10/25 06:18:49;;;;;;;5.45;1.00;;;;;;;9.90;100.00;99824.44;5034484;28;20040;-46
2022/10/25 06:21:18;;;;;;;4.35;0.90;;;;;;;9.88;100.00;99823.19;5046495;28;20049;-39
2022/10/25 06:23:46;;;;;;;1.83;0.65;;;;;;;9.84;100.00;99823.16;5040117;28;20037;-45
2022/10/25 06:26:16;;;;;;;2.20;0.70;;;;;;;9.80;100.00;99816.72;5046650;28;20467;-42
2022/10/25 06:28:43;;;;;;;7.13;1.52;;;;;;;9.78;100.00;99819.06;5039037;28;20410;-39
2022/10/25 06:31:11;;;;;;;3.05;0.70;;;;;;;9.74;100.00;99816.19;5044632;28;20044;-39
2022/10/25 06:33:39;;;;;;;3.53;0.90;;;;;;;9.69;100.00;99826.75;5045548;28;20052;-40
2022/10/25 06:36:11;;;;;;;6.22;0.93;;;;;;;9.67;100.00;99834.59;5045024;28;20040;-39
2022/10/25 06:38:38;;;;;;;2.70;0.80;;;;;;;9.63;100.00;99828.22;5043019;28;20115;-39
2022/10/25 06:41:08;;;;;;;3.55;0.75;;;;;;;9.57;100.00;99835.16;5035015;28;20072;-40
2022/10/25 06:43:35;;;;;;;1.15;0.80;;;;;;;9.49;100.00;99825.91;5047765;28;20095;-41
2022/10/25 06:46:26;;;;;;;3.70;0.82;;;;;;;9.44;100.00;99828.16;5042667;28;20048;-39
2022/10/25 06:48:55;;;;;;;2.72;0.82;;;;;;;9.39;100.00;99837.53;5045856;28;20041;-39
2022/10/25 06:51:24;;;;;;;9.15;1.80;;;;;;;9.37;100.00;99836.28;5048997;28;20037;-42
2022/10/25 06:53:54;;;;;;;3.33;0.90;;;;;;;9.36;100.00;99845.72;5040682;28;20407;-39
2022/10/25 06:56:21;;;;;;;3.15;1.30;;;;;;;9.36;100.00;99840.19;5032904;28;20045;-39
2022/10/25 06:58:49;;;;;;;4.07;1.30;;;;;;;9.35;100.00;99842.16;5040364;28;20045;-39
2022/10/25 07:01:17;;;;;;;3.63;1.15;;;;;;;9.34;100.00;99837.00;5041866;28;20056;-39
2022/10/25 07:03:45;;;;;;;3.70;1.27;;;;;;;9.31;100.00;99838.53;5047828;28;20107;-39
2022/10/25 07:06:15;;;;;;;10.48;1.23;;;;;;;9.33;100.00;99840.91;5037980;28;20135;-39
2022/10/25 07:08:44;;;;;;;3.45;1.10;;;;;;;9.33;100.00;99847.25;5045517;28;20041;-47
2022/10/25 07:11:19;;;;;;;7.75;1.48;;;;;;;9.38;100.00;99846.16;5043523;28;20044;-44
2022/10/25 07:13:46;;;;;;;5.63;1.67;;;;;;;9.41;100.00;99839.91;5046852;28;20536;-39
2022/10/25 07:16:15;;;;;;;4.75;1.25;;;;;;;9.46;100.00;99834.13;5043226;28;20064;-44
2022/10/25 07:18:42;;;;;;;7.05;1.83;;;;;;;9.48;100.00;99837.31;5038270;28;20045;-40
2022/10/25 07:21:21;;;;;;;8.77;1.65;;;;;;;9.50;100.00;99832.25;5047930;28;20048;-40
2022/10/25 07:23:49;;;;;;;6.57;1.65;;;;;;;9.55;100.00;99843.81;5044375;28;20060;-40
2022/10/25 07:26:19;;;;;;;4.53;1.35;;;;;;;9.57;100.00;99838.75;5060019;28;20590;-39
2022/10/25 07:28:47;;;;;;;3.15;1.02;;;;;;;9.60;100.00;99842.75;5046525;28;20045;-42
2022/10/25 07:31:20;;;;;;;5.30;1.33;;;;;;;9.67;100.00;99842.88;5046783;28;20045;-44
2022/10/25 07:33:47;;;;;;;;;;;;;;;9.71;100.00;99850.13;5047291;28;20059;-39
2022/10/25 07:36:14;;;;;;;7.22;0.80;;;;;;;9.73;100.00;99858.03;5048116;28;20366;-40
2022/10/25 07:38:41;;;;;;;4.82;1.83;;;;;;;9.74;100.00;99851.34;5045049;28;20116;-41
2022/10/25 07:41:08;;;;;;;2.70;0.95;;;;;;;9.78;100.00;99855.78;5048495;28;20045;-40
2022/10/25 07:43:35;;;;;;;7.43;1.20;;;;;;;9.86;100.00;99853.97;5051277;28;20044;-45
2022/10/25 07:46:03;;;;;;;5.97;1.10;;;;;;;9.97;100.00;99855.03;5051138;28;20056;-44
2022/10/25 07:48:30;;;;;;;3.90;1.40;;;;;;;10.06;100.00;99857.59;5043329;28;20076;-39
2022/10/25 07:51:00;;;;;;;3.42;1.38;;;;;;;10.12;100.00;99859.72;5046477;28;20041;-40
2022/10/25 07:53:27;;;;;;;8.80;1.73;;;;;;;10.20;100.00;99864.22;5047618;28;20057;-46
2022/10/25 07:55:54;;;;;;;12.68;1.67;;;;;;;10.28;100.00;99854.91;5051326;28;20045;-39
2022/10/25 07:58:21;;;;;;;5.53;1.80;;;;;;;10.39;100.00;99860.66;5049624;28;20769;-49
2022/10/25 08:00:48;;;;;;;12.00;1.85;;;;;;;10.49;100.00;99854.50;5047247;28;20530;-40
2022/10/25 08:03:16;;;;;;;10.52;2.25;;;;;;;10.60;100.00;99847.22;5046806;28;20053;-43
2022/10/25 08:05:45;;;;;;;6.47;1.30;;;;;;;10.67;100.00;99847.34;5042927;28;20572;-40
2022/10/25 08:08:13;;;;;;;10.95;2.28;;;;;;;10.73;100.00;99843.13;5047347;28;20064;-39
2022/10/25 08:10:43;;;;;;;9.05;1.70;;;;;;;10.78;100.00;99840.03;5045723;28;20049;-40
2022/10/25 08:13:10;;;;;;;12.82;1.70;;;;;;;10.83;100.00;99845.28;5049439;28;20394;-40
2022/10/25 08:15:39;;;;;;;9.07;1.55;;;;;;;10.86;100.00;99847.31;5052300;28;20041;-40
2022/10/25 08:18:07;;;;;;;7.88;1.70;;;;;;;10.92;100.00;99842.25;5050457;28;20045;-39
2022/10/25 08:20:34;;;;;;;10.90;1.85;;;;;;;10.98;100.00;99841.59;5048704;28;20048;-40
2022/10/25 08:23:20;;;;;;;8.35;1.50;;;;;;;11.01;100.00;99851.91;5048475;28;20048;-45
2022/10/25 08:25:47;;;;;;;10.40;1.73;;;;;;;11.05;100.00;99851.97;5051410;28;20403;-40
2022/10/25 08:28:14;;;;;;;5.72;1.77;;;;;;;11.08;100.00;99848.47;5049799;28;20487;-41
2022/10/25 08:30:41;;;;;;;9.25;1.58;;;;;;;11.14;100.00;99852.53;5049527;28;20049;-39
2022/10/25 08:33:08;;;;;;;7.38;1.55;;;;;;;11.18;100.00;99853.38;5050338;28;20037;-48
2022/10/25 08:35:37;;;;;;;11.90;1.75;;;;;;;11.24;100.00;99857.47;5049267;28;20110;-40
2022/10/25 08:38:04;;;;;;;11.15;1.75;;;;;;;11.32;100.00;99852.81;5050363;28;20055;-40
2022/10/25 08:40:55;;;;;;;6.65;2.13;;;;;;;11.38;100.00;99859.66;5050672;28;20045;-40
2022/10/25 08:44:04;;;;;;;35.38;3.35;;;;;;;11.42;100.00;99841.91;5044298;28;20052;-40
2022/10/25 08:46:37;;;;;;;8.82;1.45;;;;;;;11.50;100.00;99857.47;4989818;28;20068;-41
2022/10/25 08:49:15;;;;;;;7.63;1.40;;;;;;;11.56;100.00;99849.63;5048106;28;20135;-40
2022/10/25 08:51:46;;;;;;;9.60;2.65;;;;;;;11.62;100.00;99850.94;5048373;28;20072;-46
2022/10/25 08:54:20;;;;;;;5.90;1.70;;;;;;;11.67;100.00;99844.25;5045029;28;20045;-47
2022/10/25 08:57:09;;;;;;;12.90;2.00;;;;;;;11.71;100.00;99847.88;5048744;28;20041;-40
2022/10/25 08:59:46;;;;;;;7.82;2.03;;;;;;;11.74;100.00;99847.16;5044477;28;20041;-41
2022/10/25 09:02:28;;;;;;;10.65;1.95;;;;;;;11.79;100.00;99849.59;5048436;28;20057;-40
2022/10/25 09:04:55;;;;;;;9.55;1.48;;;;;;;11.82;100.00;99844.09;5046564;28;20044;-48
2022/10/25 09:07:22;;;;;;;11.82;1.60;;;;;;;11.90;100.00;99850.53;5048635;28;20055;-41
2022/10/25 09:10:19;;;;;;;17.20;2.78;;;;;;;12.00;100.00;99850.69;5046641;28;20135;-42
2022/10/25 09:13:16;;;;;;;6.03;1.73;;;;;;;12.08;100.00;99841.28;5048492;28;20430;-43
2022/10/25 09:16:08;;;;;;;7.30;1.95;;;;;;;12.16;100.00;99836.63;5042322;28;20048;-40
2022/10/25 09:18:56;;;;;;;7.13;1.85;;;;;;;12.17;100.00;99850.13;5027117;28;20044;-40
2022/10/25 09:21:43;;;;;;;13.20;2.33;;;;;;;12.17;100.00;99846.56;5046204;28;20048;-39
2022/10/25 09:24:22;;;;;;;15.52;3.88;;;;;;;12.19;100.00;99858.06;5048430;28;20056;-40
2022/10/25 09:26:49;;;;;;;9.15;2.20;;;;;;;12.18;100.00;99850.91;5037357;28;20057;-49
2022/10/25 09:29:23;;;;;;;10.20;2.55;;;;;;;12.16;100.00;99853.25;5042680;28;20084;-39
2022/10/25 09:31:59;;;;;;;14.20;2.92;;;;;;;12.17;100.00;99860.41;5039463;28;20066;-41
2022/10/25 09:34:31;;;;;;;9.95;2.30;;;;;;;12.17;100.00;99854.88;5041538;28;20079;-40
2022/10/25 09:37:09;;;;;;;29.60;6.47;;;;;;;12.22;100.00;99857.31;5041041;28;20425;-48
2022/10/25 09:39:41;;;;;;;14.88;4.93;;;;;;;12.28;100.00;99861.38;5036066;28;20049;-40
2022/10/25 09:42:17;;;;;;;9.52;3.20;;;;;;;12.37;100.00;99867.41;5049752;28;20041;-40
2022/10/25 09:44:53;;;;;;;10.55;3.45;;;;;;;12.42;100.00;99864.28;5050349;28;20045;-40
2022/10/25 09:47:29;;;;;;;9.25;1.75;;;;;;;12.49;100.00;99856.06;5045532;28;20513;-40
2022/10/25 09:50:01;;;;;;;6.38;1.67;;;;;;;12.59;100.00;99863.69;5041750;28;20041;-40
2022/10/25 09:52:28;;;;;;;;;;;;;;;12.70;100.00;99856.28;5044372;28;20045;-40
2022/10/25 09:55:12;;;;;;;14.02;2.35;;;;;;;12.82;100.00;99860.75;5043114;28;20392;-41
2022/10/25 09:57:40;;;;;;;6.00;1.20;;;;;;;12.91;100.00;99857.69;5043069;28;20037;-40
2022/10/25 10:00:12;;;;;;;6.25;2.70;;;;;;;12.94;100.00;99854.13;5048261;28;20043;-41
2022/10/25 10:02:40;;;;;;;8.57;1.20;;;;;;;13.02;100.00;99858.59;5041489;28;20069;-40
2022/10/25 10:05:20;;;;;;;6.95;1.55;;;;;;;13.10;100.00;99857.50;5048890;28;20037;-40
2022/10/25 10:07:49;;;;;;;7.32;1.48;;;;;;;13.16;100.00;99861.50;5048882;28;20422;-40
2022/10/25 10:10:22;;;;;;;7.75;1.92;;;;;;;13.22;100.00;99862.75;5048327;28;20056;-40
2022/10/25 10:12:55;;;;;;;8.05;2.17;;;;;;;13.26;100.00;99858.03;5042651;28;20152;-41
2022/10/25 10:15:29;;;;;;;5.57;1.85;;;;;;;13.27;100.00;99862.38;5021767;28;20076;-41
2022/10/25 10:18:25;;;;;;;4.57;1.40;;;;;;;13.27;100.00;99854.06;5036829;28;20056;-40
2022/10/25 10:20:58;;;;;;;6.20;1.60;;;;;;;13.25;100.00;99853.66;5016416;28;20049;-40
2022/10/25 10:23:36;;;;;;;5.40;1.33;;;;;;;13.23;100.00;99840.16;5042194;28;20505;-40
2022/10/25 10:26:13;;;;;;;5.57;1.50;;;;;;;13.22;100.00;99844.09;5041876;28;20502;-40
2022/10/25 10:28:45;;;;;;;4.65;1.05;;;;;;;13.23;100.00;99845.72;5030945;28;20394;-39
2022/10/25 10:31:12;;;;;;;4.80;0.90;;;;;;;13.24;100.00;99846.47;5018443;28;20485;-40
2022/10/25 10:33:45;;;;;;;4.05;1.05;;;;;;;13.26;100.00;99836.56;5043094;28;20131;-40
2022/10/25 10:36:25;;;;;;;5.85;0.90;;;;;;;13.29;100.00;99832.25;5046281;28;20683;-41
2022/10/25 10:38:52;;;;;;;3.22;0.93;;;;;;;13.30;100.00;99833.81;5030428;28;20041;-40
2022/10/25 10:41:27;;;;;;;4.53;0.73;;;;;;;13.31;100.00;99835.44;5046917;28;20044;-41
2022/10/25 10:44:12;;;;;;;6.55;0.85;;;;;;;13.31;100.00;99841.81;5047066;28;20047;-41
2022/10/25 10:46:46;;;;;;;19.00;3.35;;;;;;;13.30;100.00;99839.38;5042589;28;20048;-41
2022/10/25 10:49:14;;;;;;;7.60;1.27;;;;;;;13.31;100.00;99835.44;5048383;28;20056;-40
2022/10/25 10:51:43;;;;;;;3.60;0.90;;;;;;;13.35;100.00;99825.13;5047088;28;20044;-41
2022/10/25 10:54:39;;;;;;;1.95;0.60;;;;;;;13.41;100.00;99818.03;5044255;28;20506;-43
2022/10/25 10:57:17;;;;;;;7.80;1.05;;;;;;;13.45;100.00;99827.19;5033832;28;20506;-40
2022/10/25 10:59:54;;;;;;;5.70;0.50;;;;;;;13.49;100.00;99827.22;5045812;28;20056;-41
2022/10/25 11:02:26;;;;;;;3.22;0.60;;;;;;;13.54;99.58;99838.78;5036910;28;20065;-40
2022/10/25 11:04:55;;;;;;;4.75;0.90;;;;;;;13.57;98.90;99826.06;5034670;28;20048;-41
2022/10/25 11:07:28;;;;;;;3.08;0.63;;;;;;;13.60;98.65;99831.69;5038253;28;20487;-45
2022/10/25 11:10:21;;;;;;;6.72;1.75;;;;;;;13.60;98.26;99840.03;5030879;28;20562;-41
2022/10/25 11:13:09;;;;;;;2.72;0.70;;;;;;;13.60;98.04;99842.81;5028792;28;20041;-41
2022/10/25 11:16:14;;;;;;;4.90;0.80;;;;;;;13.70;98.01;99830.94;5043278;28;20533;-41
2022/10/25 11:18:48;;;;;;;7.65;1.13;;;;;;;13.90;97.52;99829.44;5044837;28;20132;-41
2022/10/25 11:21:39;;;;;;;5.40;0.80;;;;;;;14.10;97.01;99821.59;5026291;28;20782;-50
2022/10/25 11:24:13;;;;;;;5.18;0.93;;;;;;;14.22;96.51;99826.00;5045937;28;20037;-47
2022/10/25 11:26:53;;;;;;;7.78;3.13;;;;;;;14.26;96.36;99836.00;5037555;28;20041;-40
2022/10/25 11:29:40;;;;;;;7.43;1.60;;;;;;;14.25;95.94;99822.44;5028727;28;20288;-44
2022/10/25 11:32:26;;;;;;;4.90;0.90;;;;;;;14.21;95.92;99832.78;5042749;28;20049;-48
2022/10/25 11:35:14;;;;;;;3.70;0.95;;;;;;;14.20;95.94;99826.41;5021809;28;20825;-44
2022/10/25 11:37:51;;;;;;;3.97;1.88;;;;;;;14.18;95.85;99834.38;5032743;28;20040;-41
2022/10/25 11:40:25;;;;;;;3.88;1.15;;;;;;;14.21;95.61;99832.78;5037453;28;20052;-41
2022/10/25 11:42:58;;;;;;;9.93;1.40;;;;;;;14.25;95.55;99820.47;5028321;28;20495;-40
2022/10/25 11:45:27;;;;;;;6.95;1.52;;;;;;;14.27;95.36;99826.44;5033991;28;20458;-40
2022/10/25 11:48:15;;;;;;;9.15;1.05;;;;;;;14.25;95.16;99823.25;5040328;28;20053;-40
2022/10/25 11:50:56;;;;;;;7.00;1.58;;;;;;;14.22;95.01;99817.66;5029589;28;20076;-41
2022/10/25 11:53:50;;;;;;;5.10;1.00;;;;;;;14.19;95.04;99824.03;5035492;28;20069;-40